createdAt,value
2023-01-23T00:00:46.238Z,0.99
2023-01-23T00:03:52.219Z,1.01
2023-01-23T00:06:57.920Z,0.98
2023-01-23T00:10:04.427Z,1.02
2023-01-23T00:13:09.718Z,1.03
2023-01-23T00:16:23.552Z,1.03
2023-01-23T00:19:28.216Z,1.03
2023-01-23T00:22:34.068Z,1.01
2023-01-23T00:25:39.529Z,1.05
2023-01-23T00:28:45.902Z,1.06
2023-01-23T00:31:52.464Z,1.12
2023-01-23T00:34:58.498Z,1.03
2023-01-23T00:38:04.782Z,1.04
2023-01-23T00:41:11.968Z,1.20
2023-01-23T00:44:10.659Z,1.28
2023-01-23T00:47:03.389Z,1.34
2023-01-23T00:50:08.537Z,1.25
2023-01-23T00:53:14.593Z,1.15
2023-01-23T00:56:20.583Z,1.22
2023-01-23T00:59:26.301Z,1.16
2023-01-23T01:02:25.273Z,1.15
2023-01-23T01:05:32.976Z,1.24
2023-01-23T01:08:40.517Z,1.27
2023-01-23T01:11:45.979Z,1.31
2023-01-23T01:14:50.990Z,1.35
2023-01-23T01:17:56.950Z,1.35
2023-01-23T01:21:02.931Z,1.33
2023-01-23T01:24:08.343Z,1.33
2023-01-23T01:27:13.791Z,1.34
2023-01-23T01:30:06.779Z,1.36
2023-01-23T01:33:04.650Z,1.39
2023-01-23T01:36:10.635Z,1.32
2023-01-23T01:39:10.535Z,1.35
2023-01-23T01:42:16.383Z,1.39
2023-01-23T01:45:22.896Z,1.40
2023-01-23T01:48:28.840Z,1.48
2023-01-23T01:51:45.304Z,1.57
2023-01-23T01:55:10.455Z,1.49
2023-01-23T01:58:15.630Z,1.46
2023-01-23T02:01:21.738Z,1.46
2023-01-23T02:04:27.529Z,1.35
2023-01-23T02:07:40.334Z,1.39
2023-01-23T02:10:47.542Z,1.48
2023-01-23T02:13:53.934Z,1.46
2023-01-23T02:17:01.359Z,1.42
2023-01-23T02:20:35.900Z,1.48
2023-01-23T02:23:55.440Z,1.50
2023-01-23T02:27:01.393Z,1.53
2023-01-23T02:30:07.291Z,1.60
2023-01-23T02:33:36.993Z,1.54
2023-01-23T02:36:45.836Z,1.54
2023-01-23T02:39:52.622Z,1.59
2023-01-23T02:42:59.457Z,1.56
2023-01-23T02:46:07.679Z,1.46
2023-01-23T02:49:13.628Z,1.50
2023-01-23T02:52:19.419Z,1.48
2023-01-23T02:55:26.619Z,1.44
2023-01-23T02:58:49.936Z,1.39
2023-01-23T03:01:58.360Z,1.31
2023-01-23T03:05:05.099Z,1.29
2023-01-23T03:08:10.922Z,1.28
2023-01-23T03:11:17.395Z,1.25
2023-01-23T03:14:28.978Z,1.25
2023-01-23T03:17:35.723Z,1.25
2023-01-23T03:20:41.931Z,1.24
2023-01-23T03:23:47.204Z,1.23
2023-01-23T03:26:58.233Z,1.26
2023-01-23T03:30:23.324Z,1.24
2023-01-23T03:33:23.704Z,1.27
2023-01-23T03:36:16.944Z,1.16
2023-01-23T03:39:33.914Z,1.26
2023-01-23T03:42:32.833Z,1.25
2023-01-23T03:45:39.312Z,1.26
2023-01-23T03:48:46.207Z,1.29
2023-01-23T03:51:51.725Z,1.29
2023-01-23T03:54:57.874Z,1.39
2023-01-23T03:58:04.985Z,1.41
2023-01-23T04:01:13.134Z,1.40
2023-01-23T04:04:19.317Z,1.48
2023-01-23T04:07:24.222Z,1.55
2023-01-23T04:10:30.716Z,1.57
2023-01-23T04:13:38.961Z,1.56
2023-01-23T04:16:45.149Z,1.49
2023-01-23T04:19:51.536Z,1.51
2023-01-23T04:22:57.633Z,1.59
2023-01-23T04:26:05.383Z,1.59
2023-01-23T04:29:04.276Z,1.53
2023-01-23T04:32:05.197Z,1.60
2023-01-23T04:35:12.898Z,1.58
2023-01-23T04:38:19.953Z,1.67
2023-01-23T04:41:34.837Z,1.62
2023-01-23T04:44:43.257Z,1.48
2023-01-23T04:48:05.900Z,1.43
2023-01-23T04:51:10.948Z,1.41
2023-01-23T04:54:17.298Z,1.39
2023-01-23T04:57:24.486Z,1.45
2023-01-23T05:00:35.234Z,1.35
2023-01-23T05:03:41.902Z,1.36
2023-01-23T05:06:42.838Z,1.35
2023-01-23T05:09:48.786Z,1.31
2023-01-23T05:12:55.804Z,1.22
2023-01-23T05:16:00.994Z,1.18
2023-01-23T05:19:02.993Z,1.17
2023-01-23T05:21:49.162Z,1.07
2023-01-23T05:24:42.751Z,1.02
2023-01-23T05:27:28.234Z,0.99
2023-01-23T05:30:21.723Z,1.04
2023-01-23T05:33:30.205Z,1.00
2023-01-23T05:36:36.410Z,0.96
2023-01-23T05:39:41.500Z,1.01
2023-01-23T05:42:46.485Z,1.02
2023-01-23T05:46:09.666Z,1.00
2023-01-23T05:49:20.392Z,1.03
2023-01-23T05:52:28.742Z,1.03
2023-01-23T05:55:34.494Z,1.04
2023-01-23T05:58:40.649Z,1.07
2023-01-23T06:01:51.076Z,1.10
2023-01-23T06:05:15.749Z,1.06
2023-01-23T06:08:27.863Z,1.06
2023-01-23T06:11:34.782Z,1.08
2023-01-23T06:14:33.860Z,1.02
2023-01-23T06:17:27.399Z,1.15
2023-01-23T06:20:33.110Z,1.24
2023-01-23T06:23:39.429Z,1.20
2023-01-23T06:26:46.158Z,1.22
2023-01-23T06:29:52.135Z,1.37
2023-01-23T06:32:58.578Z,1.26
2023-01-23T06:36:14.928Z,1.47
2023-01-23T06:39:20.587Z,1.30
2023-01-23T06:42:25.784Z,1.40
2023-01-23T06:45:31.729Z,1.24
2023-01-23T06:48:38.204Z,1.62
2023-01-23T06:51:44.192Z,1.59
2023-01-23T06:54:50.725Z,1.68
2023-01-23T06:57:56.257Z,1.75
2023-01-23T07:01:03.433Z,1.76
2023-01-23T07:04:28.107Z,1.67
2023-01-23T07:07:33.493Z,1.54
2023-01-23T07:10:40.627Z,1.58
2023-01-23T07:13:46.891Z,1.61
2023-01-23T07:16:55.039Z,1.67
2023-01-23T07:20:01.905Z,1.74
2023-01-23T07:23:09.688Z,1.79
2023-01-23T07:26:18.436Z,1.74
2023-01-23T07:29:23.590Z,1.69
2023-01-23T07:32:29.481Z,1.55
2023-01-23T07:35:35.740Z,1.53
2023-01-23T07:38:41.133Z,1.50
2023-01-23T07:41:48.743Z,1.45
2023-01-23T07:44:48.477Z,1.47
2023-01-23T07:47:53.573Z,1.42
2023-01-23T07:50:58.767Z,1.36
2023-01-23T07:54:04.025Z,1.39
2023-01-23T07:57:13.492Z,1.35
2023-01-23T08:00:22.397Z,1.35
2023-01-23T08:03:28.107Z,1.31
2023-01-23T08:06:34.211Z,1.33
2023-01-23T08:09:39.971Z,1.35
2023-01-23T08:12:45.911Z,1.32
2023-01-23T08:15:53.750Z,1.38
2023-01-23T08:18:58.812Z,1.33
2023-01-23T08:22:04.511Z,1.47
2023-01-23T08:25:09.467Z,1.49
2023-01-23T08:28:14.668Z,1.54
2023-01-23T08:31:22.266Z,1.73
2023-01-23T08:34:28.335Z,1.52
2023-01-23T08:37:35.356Z,1.62
2023-01-23T08:40:41.707Z,1.71
2023-01-23T08:43:48.285Z,1.61
2023-01-23T08:46:55.821Z,1.66
2023-01-23T08:50:02.141Z,1.61
2023-01-23T08:53:07.348Z,1.74
2023-01-23T08:56:16.900Z,1.73
2023-01-23T08:59:22.780Z,2.13
2023-01-23T09:02:28.596Z,2.23
2023-01-23T09:05:33.628Z,2.17
2023-01-23T09:08:38.946Z,2.01
2023-01-23T09:11:44.400Z,2.07
2023-01-23T09:14:49.875Z,2.07
2023-01-23T09:17:55.816Z,2.04
2023-01-23T09:21:00.981Z,1.93
2023-01-23T09:24:07.435Z,1.77
2023-01-23T09:27:12.827Z,1.80
2023-01-23T09:30:19.743Z,1.75
2023-01-23T09:33:27.773Z,1.82
2023-01-23T09:36:42.565Z,1.79
2023-01-23T09:39:40.342Z,1.85
2023-01-23T09:42:49.107Z,1.74
2023-01-23T09:45:54.313Z,1.62
2023-01-23T09:49:09.334Z,1.47
2023-01-23T09:52:22.328Z,1.51
2023-01-23T09:55:42.132Z,1.62
2023-01-23T09:58:53.947Z,1.74
2023-01-23T10:01:59.941Z,1.59
2023-01-23T10:05:09.495Z,1.41
2023-01-23T10:08:49.603Z,1.36
2023-01-23T10:12:09.774Z,1.60
2023-01-23T10:15:34.418Z,1.59
2023-01-23T10:19:18.350Z,1.71
2023-01-23T10:22:47.418Z,1.73
2023-01-23T10:25:53.702Z,1.56
2023-01-23T10:28:59.411Z,1.46
2023-01-23T10:32:06.507Z,1.34
2023-01-23T10:35:22.009Z,1.49
2023-01-23T10:38:58.968Z,1.37
2023-01-23T10:42:04.758Z,1.11
2023-01-23T10:45:10.611Z,1.16
2023-01-23T10:48:16.743Z,1.20
2023-01-23T10:51:45.080Z,1.06
2023-01-23T10:55:00.371Z,0.93
2023-01-23T10:58:09.863Z,0.96
2023-01-23T11:01:18.354Z,0.99
2023-01-23T11:04:35.674Z,0.98
2023-01-23T11:07:42.723Z,1.06
2023-01-23T11:10:48.310Z,1.10
2023-01-23T11:13:55.333Z,1.16
2023-01-23T11:17:00.817Z,1.23
2023-01-23T11:20:08.313Z,1.25
2023-01-23T11:23:31.591Z,1.38
2023-01-23T11:26:48.211Z,1.30
2023-01-23T16:10:52.920Z,0.72
2023-01-23T16:13:58.517Z,0.39
2023-01-23T16:17:16.386Z,0.83
2023-01-23T16:20:13.265Z,0.62
2023-01-23T16:23:46.658Z,0.53
2023-01-23T16:26:42.757Z,0.66
2023-01-23T16:29:51.312Z,0.86
2023-01-23T16:32:57.977Z,0.87
2023-01-23T16:36:04.149Z,0.94
2023-01-23T16:39:09.118Z,0.90
2023-01-23T16:42:15.431Z,1.14
2023-01-23T16:45:38.546Z,1.00
2023-01-23T16:48:45.458Z,1.06
2023-01-23T16:51:51.679Z,1.32
2023-01-23T16:54:59.082Z,1.29
2023-01-23T16:58:06.642Z,1.38
2023-01-23T17:01:24.169Z,1.20
2023-01-23T17:04:32.496Z,1.28
2023-01-23T17:07:38.280Z,1.79
2023-01-23T17:10:46.648Z,1.84
2023-01-23T17:13:51.092Z,1.77
2023-01-23T17:16:56.898Z,1.76
2023-01-23T17:20:02.616Z,1.60
2023-01-23T17:23:08.297Z,1.60
2023-01-23T17:26:14.732Z,1.48
2023-01-23T17:29:20.408Z,1.79
2023-01-23T17:32:34.480Z,1.82
2023-01-23T17:35:51.429Z,1.65
2023-01-23T17:38:58.419Z,1.45
2023-01-23T17:42:04.414Z,1.63
2023-01-23T17:45:10.155Z,1.73
2023-01-23T17:48:15.759Z,1.86
2023-01-23T17:51:23.759Z,1.87
2023-01-23T17:54:34.744Z,2.00
2023-01-23T17:57:41.216Z,1.85
2023-01-23T18:00:46.818Z,2.09
2023-01-23T18:03:51.911Z,2.26
2023-01-23T18:06:59.055Z,2.30
2023-01-23T18:10:04.763Z,2.26
2023-01-23T18:13:55.927Z,2.34
2023-01-23T18:17:02.465Z,2.40
2023-01-23T18:20:08.658Z,2.40
2023-01-23T18:23:07.368Z,2.51
2023-01-23T18:25:53.196Z,2.29
2023-01-23T18:29:18.502Z,2.30
2023-01-23T18:32:26.311Z,2.15
2023-01-23T18:36:05.664Z,2.34
2023-01-23T18:39:27.095Z,2.28
2023-01-23T18:42:46.464Z,2.26
2023-01-23T18:45:51.716Z,2.35
2023-01-23T18:48:58.519Z,2.32
2023-01-23T18:52:29.493Z,2.16
2023-01-23T18:56:04.692Z,2.13
2023-01-23T18:59:32.558Z,2.19
2023-01-23T19:02:49.929Z,2.29
2023-01-23T19:05:56.994Z,2.33
2023-01-23T19:09:03.812Z,2.07
2023-01-23T19:12:25.744Z,2.07
2023-01-23T19:15:57.326Z,2.16
2023-01-23T19:19:23.630Z,2.28
2023-01-23T19:22:28.115Z,2.17
2023-01-23T19:25:33.216Z,2.18
2023-01-23T19:28:40.895Z,2.16
2023-01-23T19:32:03.710Z,2.12
2023-01-23T19:34:50.655Z,2.39
2023-01-23T19:37:57.391Z,2.34
2023-01-23T19:41:03.978Z,2.13
2023-01-23T19:44:10.623Z,2.08
2023-01-23T19:47:16.340Z,2.17
2023-01-23T19:50:25.914Z,2.19
2023-01-23T19:53:32.384Z,2.21
2023-01-23T19:56:38.195Z,2.25
2023-01-23T19:59:43.743Z,2.29
2023-01-23T20:02:49.624Z,2.33
2023-01-23T20:05:55.756Z,2.22
2023-01-23T20:09:01.805Z,2.25
2023-01-23T20:12:07.494Z,2.23
2023-01-23T20:15:13.691Z,1.98
2023-01-23T20:18:22.023Z,2.07
2023-01-23T20:21:27.930Z,2.09
2023-01-23T20:24:34.505Z,2.05
2023-01-23T20:27:41.635Z,1.84
2023-01-23T20:30:47.141Z,1.76
2023-01-23T20:33:52.660Z,1.90
2023-01-23T20:36:58.135Z,1.83
2023-01-23T20:40:09.374Z,1.97
2023-01-23T20:43:17.351Z,1.89
2023-01-23T20:46:26.134Z,1.92
2023-01-23T20:49:25.130Z,1.84
2023-01-23T20:52:48.580Z,1.89
2023-01-23T20:55:55.799Z,1.96
2023-01-23T20:59:20.694Z,1.84
2023-01-23T21:02:32.597Z,1.87
2023-01-23T21:05:37.878Z,1.88
2023-01-23T21:08:43.840Z,1.78
2023-01-23T21:11:49.613Z,1.97
2023-01-23T21:14:55.767Z,2.01
2023-01-23T21:18:01.199Z,2.25
2023-01-23T21:21:08.049Z,2.28
2023-01-23T21:24:13.536Z,2.24
2023-01-23T21:27:23.453Z,2.11
2023-01-23T21:30:28.140Z,2.12
2023-01-23T21:33:34.205Z,2.01
2023-01-23T21:36:39.810Z,2.03
2023-01-23T21:39:45.587Z,2.00
2023-01-23T21:42:51.941Z,2.22
2023-01-23T21:45:58.476Z,2.03
2023-01-23T21:49:03.973Z,2.01
2023-01-23T21:52:09.282Z,2.03
2023-01-23T21:55:14.926Z,2.11
2023-01-23T21:58:20.440Z,2.11
2023-01-23T22:01:42.807Z,2.08
2023-01-23T22:04:49.259Z,2.03
2023-01-23T22:07:55.489Z,2.00
2023-01-23T22:11:01.466Z,1.96
2023-01-23T22:14:08.437Z,1.88
2023-01-23T22:17:14.881Z,2.00
2023-01-23T22:20:20.802Z,2.25
2023-01-23T22:23:27.272Z,2.23
2023-01-23T22:26:33.845Z,2.28
2023-01-23T22:29:39.082Z,2.23
2023-01-23T22:32:47.543Z,2.13
2023-01-23T22:35:56.504Z,2.18
2023-01-23T22:39:06.877Z,2.15
2023-01-23T22:42:13.053Z,2.20
2023-01-23T22:45:18.678Z,2.30
2023-01-23T22:48:24.044Z,2.28
2023-01-23T22:51:38.590Z,2.07
2023-01-23T22:54:44.371Z,2.07
2023-01-23T22:57:49.868Z,2.02
2023-01-23T23:00:59.164Z,1.99
2023-01-23T23:04:04.770Z,2.03
2023-01-23T23:07:11.288Z,2.08
2023-01-23T23:10:19.774Z,1.90
2023-01-23T23:13:25.430Z,2.07
2023-01-23T23:16:36.073Z,2.02
2023-01-23T23:19:41.613Z,2.08
2023-01-23T23:22:48.217Z,2.10
2023-01-23T23:25:53.415Z,2.08
2023-01-23T23:29:00.843Z,2.12
2023-01-23T23:32:05.961Z,2.01
2023-01-23T23:35:11.972Z,2.07
2023-01-23T23:38:17.947Z,2.13
2023-01-23T23:41:28.226Z,2.27
2023-01-23T23:44:33.597Z,2.09
2023-01-23T23:47:39.554Z,2.04
2023-01-23T23:50:47.054Z,2.18
2023-01-23T23:53:53.163Z,2.20
2023-01-23T23:56:58.003Z,2.22
